<?xml version="1.0" encoding="UTF-8" standalone="no" ?>
<gpx xmlns="http://www.topografix.com/GPX/1/1" xmlns:xsi="http://www.w3.org/2001/XMLSchema-instance" xsi:schemaLocation="http://www.topografix.com/GPX/1/1 http://www.topografix.com/GPX/1/1/gpx.xsd" version="1.1" creator="VisuGPX - https://www.visugpx.com">
  <metadata>
    <name>14771317-Col Garin Mail Hard St Bertrand</name>
  </metadata>
  <trk>
    <name><![CDATA[14771317-Col Garin Mail Hard St Bertrand]]></name>
    <extensions>
      <line xmlns="http://www.topografix.com/GPX/gpx_style/0/2">
        <color>0000FF</color>
        <width>4</width>
      </line>
    </extensions>
    <trkseg>
      <trkpt lat="43.02934" lon="0.57172">
        <ele>461</ele>
        <time>2022-05-16T14:30:44Z</time>
      </trkpt>
      <trkpt lat="43.0296" lon="0.57185">
        <ele>461</ele>
        <time>2022-05-16T14:31:21Z</time>
      </trkpt>
      <trkpt lat="43.02974" lon="0.57151">
        <ele>461</ele>
        <time>2022-05-16T14:31:59Z</time>
      </trkpt>
      <trkpt lat="43.02988" lon="0.57128">
        <ele>460</ele>
        <time>2022-05-16T14:32:28Z</time>
      </trkpt>
      <trkpt lat="43.02993" lon="0.5709">
        <ele>459</ele>
        <time>2022-05-16T14:33:06Z</time>
      </trkpt>
      <trkpt lat="43.02988" lon="0.5707">
        <ele>459</ele>
        <time>2022-05-16T14:33:26Z</time>
      </trkpt>
      <trkpt lat="43.02951" lon="0.57015">
        <ele>460</ele>
        <time>2022-05-16T14:34:39Z</time>
      </trkpt>
      <trkpt lat="43.0291" lon="0.56981">
        <ele>464</ele>
        <time>2022-05-16T14:35:43Z</time>
      </trkpt>
      <trkpt lat="43.02876" lon="0.56955">
        <ele>469</ele>
        <time>2022-05-16T14:36:35Z</time>
      </trkpt>
      <trkpt lat="43.02847" lon="0.56926">
        <ele>470</ele>
        <time>2022-05-16T14:37:23Z</time>
      </trkpt>
      <trkpt lat="43.02796" lon="0.56876">
        <ele>477</ele>
        <time>2022-05-16T14:38:47Z</time>
      </trkpt>
      <trkpt lat="43.028" lon="0.5684">
        <ele>476</ele>
        <time>2022-05-16T14:39:23Z</time>
      </trkpt>
      <trkpt lat="43.02809" lon="0.56796">
        <ele>481</ele>
        <time>2022-05-16T14:40:07Z</time>
      </trkpt>
      <trkpt lat="43.02815" lon="0.56777">
        <ele>484</ele>
        <time>2022-05-16T14:40:27Z</time>
      </trkpt>
      <trkpt lat="43.02811" lon="0.56757">
        <ele>488</ele>
        <time>2022-05-16T14:40:48Z</time>
      </trkpt>
      <trkpt lat="43.02803" lon="0.56739">
        <ele>491</ele>
        <time>2022-05-16T14:41:08Z</time>
      </trkpt>
      <trkpt lat="43.02787" lon="0.5673">
        <ele>495</ele>
        <time>2022-05-16T14:41:31Z</time>
      </trkpt>
      <trkpt lat="43.02759" lon="0.56723">
        <ele>498</ele>
        <time>2022-05-16T14:42:09Z</time>
      </trkpt>
      <trkpt lat="43.02746" lon="0.56714">
        <ele>500</ele>
        <time>2022-05-16T14:42:29Z</time>
      </trkpt>
      <trkpt lat="43.02726" lon="0.56702">
        <ele>502</ele>
        <time>2022-05-16T14:42:58Z</time>
      </trkpt>
      <trkpt lat="43.02707" lon="0.56666">
        <ele>506</ele>
        <time>2022-05-16T14:43:41Z</time>
      </trkpt>
      <trkpt lat="43.02671" lon="0.56593">
        <ele>514</ele>
        <time>2022-05-16T14:45:07Z</time>
      </trkpt>
      <trkpt lat="43.02649" lon="0.56574">
        <ele>517</ele>
        <time>2022-05-16T14:45:42Z</time>
      </trkpt>
      <trkpt lat="43.02645" lon="0.56582">
        <ele>517</ele>
        <time>2022-05-16T14:45:51Z</time>
      </trkpt>
      <trkpt lat="43.02639" lon="0.56574">
        <ele>518</ele>
        <time>2022-05-16T14:46:02Z</time>
      </trkpt>
      <trkpt lat="43.02596" lon="0.56567">
        <ele>521</ele>
        <time>2022-05-16T14:47:00Z</time>
      </trkpt>
      <trkpt lat="43.0258" lon="0.56556">
        <ele>523</ele>
        <time>2022-05-16T14:47:24Z</time>
      </trkpt>
      <trkpt lat="43.02568" lon="0.5651">
        <ele>528</ele>
        <time>2022-05-16T14:48:12Z</time>
      </trkpt>
      <trkpt lat="43.02561" lon="0.56499">
        <ele>530</ele>
        <time>2022-05-16T14:48:26Z</time>
      </trkpt>
      <trkpt lat="43.02556" lon="0.56498">
        <ele>531</ele>
        <time>2022-05-16T14:48:33Z</time>
      </trkpt>
      <trkpt lat="43.02543" lon="0.56514">
        <ele>533</ele>
        <time>2022-05-16T14:48:56Z</time>
      </trkpt>
      <trkpt lat="43.02539" lon="0.56528">
        <ele>532</ele>
        <time>2022-05-16T14:49:11Z</time>
      </trkpt>
      <trkpt lat="43.02532" lon="0.56541">
        <ele>532</ele>
        <time>2022-05-16T14:49:26Z</time>
      </trkpt>
      <trkpt lat="43.02461" lon="0.56605">
        <ele>542</ele>
        <time>2022-05-16T14:51:20Z</time>
      </trkpt>
      <trkpt lat="43.02452" lon="0.56627">
        <ele>544</ele>
        <time>2022-05-16T14:51:44Z</time>
      </trkpt>
      <trkpt lat="43.02415" lon="0.56664">
        <ele>551</ele>
        <time>2022-05-16T14:52:46Z</time>
      </trkpt>
      <trkpt lat="43.024" lon="0.56691">
        <ele>553</ele>
        <time>2022-05-16T14:53:19Z</time>
      </trkpt>
      <trkpt lat="43.02393" lon="0.56699">
        <ele>554</ele>
        <time>2022-05-16T14:53:31Z</time>
      </trkpt>
      <trkpt lat="43.02379" lon="0.56703">
        <ele>557</ele>
        <time>2022-05-16T14:53:50Z</time>
      </trkpt>
      <trkpt lat="43.0234" lon="0.56692">
        <ele>568</ele>
        <time>2022-05-16T14:54:43Z</time>
      </trkpt>
      <trkpt lat="43.0233" lon="0.56713">
        <ele>569</ele>
        <time>2022-05-16T14:55:08Z</time>
      </trkpt>
      <trkpt lat="43.02314" lon="0.56723">
        <ele>574</ele>
        <time>2022-05-16T14:55:31Z</time>
      </trkpt>
      <trkpt lat="43.02297" lon="0.56723">
        <ele>580</ele>
        <time>2022-05-16T14:55:54Z</time>
      </trkpt>
      <trkpt lat="43.02267" lon="0.56715">
        <ele>590</ele>
        <time>2022-05-16T14:56:34Z</time>
      </trkpt>
      <trkpt lat="43.0225" lon="0.5671">
        <ele>596</ele>
        <time>2022-05-16T14:56:58Z</time>
      </trkpt>
      <trkpt lat="43.02239" lon="0.56709">
        <ele>596</ele>
        <time>2022-05-16T14:57:12Z</time>
      </trkpt>
      <trkpt lat="43.02216" lon="0.56715">
        <ele>597</ele>
        <time>2022-05-16T14:57:44Z</time>
      </trkpt>
      <trkpt lat="43.02202" lon="0.5671">
        <ele>598</ele>
        <time>2022-05-16T14:58:03Z</time>
      </trkpt>
      <trkpt lat="43.02199" lon="0.56679">
        <ele>602</ele>
        <time>2022-05-16T14:58:33Z</time>
      </trkpt>
      <trkpt lat="43.02195" lon="0.56649">
        <ele>607</ele>
        <time>2022-05-16T14:59:03Z</time>
      </trkpt>
      <trkpt lat="43.02144" lon="0.56421">
        <ele>656</ele>
        <time>2022-05-16T15:02:56Z</time>
      </trkpt>
      <trkpt lat="43.02114" lon="0.56337">
        <ele>680</ele>
        <time>2022-05-16T15:04:27Z</time>
      </trkpt>
      <trkpt lat="43.02086" lon="0.5627">
        <ele>702</ele>
        <time>2022-05-16T15:05:42Z</time>
      </trkpt>
      <trkpt lat="43.02035" lon="0.56179">
        <ele>722</ele>
        <time>2022-05-16T15:07:34Z</time>
      </trkpt>
      <trkpt lat="43.01979" lon="0.56076">
        <ele>751</ele>
        <time>2022-05-16T15:09:39Z</time>
      </trkpt>
      <trkpt lat="43.01957" lon="0.55926">
        <ele>774</ele>
        <time>2022-05-16T15:12:09Z</time>
      </trkpt>
      <trkpt lat="43.01933" lon="0.55856">
        <ele>794</ele>
        <time>2022-05-16T15:13:24Z</time>
      </trkpt>
      <trkpt lat="43.01896" lon="0.55802">
        <ele>807</ele>
        <time>2022-05-16T15:14:36Z</time>
      </trkpt>
      <trkpt lat="43.01873" lon="0.55775">
        <ele>810</ele>
        <time>2022-05-16T15:15:17Z</time>
      </trkpt>
      <trkpt lat="43.0182" lon="0.55745">
        <ele>814</ele>
        <time>2022-05-16T15:16:33Z</time>
      </trkpt>
      <trkpt lat="43.01791" lon="0.55709">
        <ele>806</ele>
        <time>2022-05-16T15:17:26Z</time>
      </trkpt>
      <trkpt lat="43.01746" lon="0.55707">
        <ele>799</ele>
        <time>2022-05-16T15:18:26Z</time>
      </trkpt>
      <trkpt lat="43.0168" lon="0.55685">
        <ele>778</ele>
        <time>2022-05-16T15:19:56Z</time>
      </trkpt>
      <trkpt lat="43.01668" lon="0.55661">
        <ele>775</ele>
        <time>2022-05-16T15:20:25Z</time>
      </trkpt>
      <trkpt lat="43.01651" lon="0.55569">
        <ele>765</ele>
        <time>2022-05-16T15:21:57Z</time>
      </trkpt>
      <trkpt lat="43.01648" lon="0.55515">
        <ele>757</ele>
        <time>2022-05-16T15:22:50Z</time>
      </trkpt>
      <trkpt lat="43.01642" lon="0.55486">
        <ele>754</ele>
        <time>2022-05-16T15:23:20Z</time>
      </trkpt>
      <trkpt lat="43.01628" lon="0.55463">
        <ele>752</ele>
        <time>2022-05-16T15:23:49Z</time>
      </trkpt>
      <trkpt lat="43.01623" lon="0.55439">
        <ele>751</ele>
        <time>2022-05-16T15:24:13Z</time>
      </trkpt>
      <trkpt lat="43.01626" lon="0.55385">
        <ele>757</ele>
        <time>2022-05-16T15:25:06Z</time>
      </trkpt>
      <trkpt lat="43.01663" lon="0.55331">
        <ele>761</ele>
        <time>2022-05-16T15:26:18Z</time>
      </trkpt>
      <trkpt lat="43.0168" lon="0.55316">
        <ele>759</ele>
        <time>2022-05-16T15:26:45Z</time>
      </trkpt>
      <trkpt lat="43.01706" lon="0.55268">
        <ele>758</ele>
        <time>2022-05-16T15:27:43Z</time>
      </trkpt>
      <trkpt lat="43.01755" lon="0.55216">
        <ele>746</ele>
        <time>2022-05-16T15:29:06Z</time>
      </trkpt>
      <trkpt lat="43.01801" lon="0.55183">
        <ele>738</ele>
        <time>2022-05-16T15:30:15Z</time>
      </trkpt>
      <trkpt lat="43.01827" lon="0.55132">
        <ele>735</ele>
        <time>2022-05-16T15:31:16Z</time>
      </trkpt>
      <trkpt lat="43.01852" lon="0.55038">
        <ele>730</ele>
        <time>2022-05-16T15:32:54Z</time>
      </trkpt>
      <trkpt lat="43.01868" lon="0.54964">
        <ele>723</ele>
        <time>2022-05-16T15:34:09Z</time>
      </trkpt>
      <trkpt lat="43.01893" lon="0.54898">
        <ele>709</ele>
        <time>2022-05-16T15:35:22Z</time>
      </trkpt>
      <trkpt lat="43.01942" lon="0.54803">
        <ele>677</ele>
        <time>2022-05-16T15:37:15Z</time>
      </trkpt>
      <trkpt lat="43.01977" lon="0.54738">
        <ele>657</ele>
        <time>2022-05-16T15:38:34Z</time>
      </trkpt>
      <trkpt lat="43.02018" lon="0.54674">
        <ele>633</ele>
        <time>2022-05-16T15:39:57Z</time>
      </trkpt>
      <trkpt lat="43.02061" lon="0.54636">
        <ele>619</ele>
        <time>2022-05-16T15:41:05Z</time>
      </trkpt>
      <trkpt lat="43.02115" lon="0.54614">
        <ele>605</ele>
        <time>2022-05-16T15:42:20Z</time>
      </trkpt>
      <trkpt lat="43.02213" lon="0.54588">
        <ele>575</ele>
        <time>2022-05-16T15:44:33Z</time>
      </trkpt>
      <trkpt lat="43.02257" lon="0.54602">
        <ele>571</ele>
        <time>2022-05-16T15:45:34Z</time>
      </trkpt>
      <trkpt lat="43.02278" lon="0.54605">
        <ele>568</ele>
        <time>2022-05-16T15:46:02Z</time>
      </trkpt>
      <trkpt lat="43.02321" lon="0.5462">
        <ele>563</ele>
        <time>2022-05-16T15:47:01Z</time>
      </trkpt>
      <trkpt lat="43.02378" lon="0.54646">
        <ele>557</ele>
        <time>2022-05-16T15:48:21Z</time>
      </trkpt>
      <trkpt lat="43.02414" lon="0.5467">
        <ele>552</ele>
        <time>2022-05-16T15:49:15Z</time>
      </trkpt>
      <trkpt lat="43.02445" lon="0.54702">
        <ele>551</ele>
        <time>2022-05-16T15:50:07Z</time>
      </trkpt>
      <trkpt lat="43.02477" lon="0.54746">
        <ele>548</ele>
        <time>2022-05-16T15:51:07Z</time>
      </trkpt>
      <trkpt lat="43.02502" lon="0.54798">
        <ele>545</ele>
        <time>2022-05-16T15:52:08Z</time>
      </trkpt>
      <trkpt lat="43.02511" lon="0.54828">
        <ele>546</ele>
        <time>2022-05-16T15:52:40Z</time>
      </trkpt>
      <trkpt lat="43.02519" lon="0.54834">
        <ele>544</ele>
        <time>2022-05-16T15:52:52Z</time>
      </trkpt>
      <trkpt lat="43.02522" lon="0.54824">
        <ele>542</ele>
        <time>2022-05-16T15:53:02Z</time>
      </trkpt>
      <trkpt lat="43.0251" lon="0.54776">
        <ele>539</ele>
        <time>2022-05-16T15:53:52Z</time>
      </trkpt>
      <trkpt lat="43.02514" lon="0.54721">
        <ele>531</ele>
        <time>2022-05-16T15:54:46Z</time>
      </trkpt>
      <trkpt lat="43.02513" lon="0.54697">
        <ele>528</ele>
        <time>2022-05-16T15:55:09Z</time>
      </trkpt>
      <trkpt lat="43.02502" lon="0.54664">
        <ele>526</ele>
        <time>2022-05-16T15:55:44Z</time>
      </trkpt>
      <trkpt lat="43.02486" lon="0.54638">
        <ele>527</ele>
        <time>2022-05-16T15:56:18Z</time>
      </trkpt>
      <trkpt lat="43.02474" lon="0.54611">
        <ele>525</ele>
        <time>2022-05-16T15:56:48Z</time>
      </trkpt>
      <trkpt lat="43.02471" lon="0.5459">
        <ele>522</ele>
        <time>2022-05-16T15:57:09Z</time>
      </trkpt>
      <trkpt lat="43.02465" lon="0.54541">
        <ele>520</ele>
        <time>2022-05-16T15:57:58Z</time>
      </trkpt>
      <trkpt lat="43.02454" lon="0.54495">
        <ele>518</ele>
        <time>2022-05-16T15:58:45Z</time>
      </trkpt>
      <trkpt lat="43.02419" lon="0.54445">
        <ele>518</ele>
        <time>2022-05-16T15:59:53Z</time>
      </trkpt>
      <trkpt lat="43.02405" lon="0.54432">
        <ele>518</ele>
        <time>2022-05-16T16:00:15Z</time>
      </trkpt>
      <trkpt lat="43.02331" lon="0.54395">
        <ele>522</ele>
        <time>2022-05-16T16:02:00Z</time>
      </trkpt>
      <trkpt lat="43.02277" lon="0.54351">
        <ele>525</ele>
        <time>2022-05-16T16:03:24Z</time>
      </trkpt>
      <trkpt lat="43.02276" lon="0.54322">
        <ele>525</ele>
        <time>2022-05-16T16:03:52Z</time>
      </trkpt>
      <trkpt lat="43.02296" lon="0.54308">
        <ele>528</ele>
        <time>2022-05-16T16:04:22Z</time>
      </trkpt>
      <trkpt lat="43.02317" lon="0.54288">
        <ele>532</ele>
        <time>2022-05-16T16:04:57Z</time>
      </trkpt>
      <trkpt lat="43.02337" lon="0.54288">
        <ele>534</ele>
        <time>2022-05-16T16:05:23Z</time>
      </trkpt>
      <trkpt lat="43.02373" lon="0.54305">
        <ele>532</ele>
        <time>2022-05-16T16:06:14Z</time>
      </trkpt>
      <trkpt lat="43.02413" lon="0.54306">
        <ele>533</ele>
        <time>2022-05-16T16:07:08Z</time>
      </trkpt>
      <trkpt lat="43.02479" lon="0.54329">
        <ele>525</ele>
        <time>2022-05-16T16:08:38Z</time>
      </trkpt>
      <trkpt lat="43.02546" lon="0.54371">
        <ele>518</ele>
        <time>2022-05-16T16:10:17Z</time>
      </trkpt>
      <trkpt lat="43.02579" lon="0.5437">
        <ele>516</ele>
        <time>2022-05-16T16:11:01Z</time>
      </trkpt>
      <trkpt lat="43.02645" lon="0.54408">
        <ele>513</ele>
        <time>2022-05-16T16:12:36Z</time>
      </trkpt>
      <trkpt lat="43.02676" lon="0.54425">
        <ele>513</ele>
        <time>2022-05-16T16:13:21Z</time>
      </trkpt>
      <trkpt lat="43.02714" lon="0.54458">
        <ele>513</ele>
        <time>2022-05-16T16:14:21Z</time>
      </trkpt>
      <trkpt lat="43.02759" lon="0.54359">
        <ele>514</ele>
        <time>2022-05-16T16:16:15Z</time>
      </trkpt>
      <trkpt lat="43.02786" lon="0.54313">
        <ele>521</ele>
        <time>2022-05-16T16:17:12Z</time>
      </trkpt>
      <trkpt lat="43.02786" lon="0.54298">
        <ele>524</ele>
        <time>2022-05-16T16:17:27Z</time>
      </trkpt>
      <trkpt lat="43.02747" lon="0.54246">
        <ele>530</ele>
        <time>2022-05-16T16:18:40Z</time>
      </trkpt>
      <trkpt lat="43.02673" lon="0.54155">
        <ele>548</ele>
        <time>2022-05-16T16:20:52Z</time>
      </trkpt>
      <trkpt lat="43.02626" lon="0.54115">
        <ele>553</ele>
        <time>2022-05-16T16:22:06Z</time>
      </trkpt>
      <trkpt lat="43.02623" lon="0.54105">
        <ele>555</ele>
        <time>2022-05-16T16:22:17Z</time>
      </trkpt>
      <trkpt lat="43.02629" lon="0.54102">
        <ele>557</ele>
        <time>2022-05-16T16:22:25Z</time>
      </trkpt>
      <trkpt lat="43.02647" lon="0.54103">
        <ele>560</ele>
        <time>2022-05-16T16:22:49Z</time>
      </trkpt>
      <trkpt lat="43.02704" lon="0.54104">
        <ele>569</ele>
        <time>2022-05-16T16:24:05Z</time>
      </trkpt>
      <trkpt lat="43.02761" lon="0.54113">
        <ele>574</ele>
        <time>2022-05-16T16:25:22Z</time>
      </trkpt>
      <trkpt lat="43.02813" lon="0.54128">
        <ele>574</ele>
        <time>2022-05-16T16:26:33Z</time>
      </trkpt>
      <trkpt lat="43.02914" lon="0.54172">
        <ele>573</ele>
        <time>2022-05-16T16:28:54Z</time>
      </trkpt>
      <trkpt lat="43.02963" lon="0.54176">
        <ele>572</ele>
        <time>2022-05-16T16:30:00Z</time>
      </trkpt>
      <trkpt lat="43.03083" lon="0.54154">
        <ele>577</ele>
        <time>2022-05-16T16:32:41Z</time>
      </trkpt>
      <trkpt lat="43.03115" lon="0.54143">
        <ele>578</ele>
        <time>2022-05-16T16:33:25Z</time>
      </trkpt>
      <trkpt lat="43.03159" lon="0.54138">
        <ele>575</ele>
        <time>2022-05-16T16:34:24Z</time>
      </trkpt>
      <trkpt lat="43.03201" lon="0.54158">
        <ele>570</ele>
        <time>2022-05-16T16:35:24Z</time>
      </trkpt>
      <trkpt lat="43.03227" lon="0.54197">
        <ele>561</ele>
        <time>2022-05-16T16:36:15Z</time>
      </trkpt>
      <trkpt lat="43.03273" lon="0.54248">
        <ele>554</ele>
        <time>2022-05-16T16:37:34Z</time>
      </trkpt>
      <trkpt lat="43.03299" lon="0.54269">
        <ele>556</ele>
        <time>2022-05-16T16:38:15Z</time>
      </trkpt>
      <trkpt lat="43.03307" lon="0.54282">
        <ele>555</ele>
        <time>2022-05-16T16:38:31Z</time>
      </trkpt>
      <trkpt lat="43.03317" lon="0.54326">
        <ele>550</ele>
        <time>2022-05-16T16:39:16Z</time>
      </trkpt>
      <trkpt lat="43.03326" lon="0.54372">
        <ele>546</ele>
        <time>2022-05-16T16:40:02Z</time>
      </trkpt>
      <trkpt lat="43.03335" lon="0.54396">
        <ele>545</ele>
        <time>2022-05-16T16:40:29Z</time>
      </trkpt>
      <trkpt lat="43.0336" lon="0.5441">
        <ele>543</ele>
        <time>2022-05-16T16:41:05Z</time>
      </trkpt>
      <trkpt lat="43.03368" lon="0.54421">
        <ele>542</ele>
        <time>2022-05-16T16:41:20Z</time>
      </trkpt>
      <trkpt lat="43.03375" lon="0.5444">
        <ele>539</ele>
        <time>2022-05-16T16:41:41Z</time>
      </trkpt>
      <trkpt lat="43.03376" lon="0.5446">
        <ele>536</ele>
        <time>2022-05-16T16:42:00Z</time>
      </trkpt>
      <trkpt lat="43.03373" lon="0.54488">
        <ele>533</ele>
        <time>2022-05-16T16:42:28Z</time>
      </trkpt>
      <trkpt lat="43.03364" lon="0.54513">
        <ele>528</ele>
        <time>2022-05-16T16:42:55Z</time>
      </trkpt>
      <trkpt lat="43.03339" lon="0.5453">
        <ele>526</ele>
        <time>2022-05-16T16:43:32Z</time>
      </trkpt>
      <trkpt lat="43.0335" lon="0.54536">
        <ele>523</ele>
        <time>2022-05-16T16:43:48Z</time>
      </trkpt>
      <trkpt lat="43.0337" lon="0.54539">
        <ele>521</ele>
        <time>2022-05-16T16:44:15Z</time>
      </trkpt>
      <trkpt lat="43.03389" lon="0.54536">
        <ele>520</ele>
        <time>2022-05-16T16:44:41Z</time>
      </trkpt>
      <trkpt lat="43.03405" lon="0.54534">
        <ele>519</ele>
        <time>2022-05-16T16:45:02Z</time>
      </trkpt>
      <trkpt lat="43.03408" lon="0.54543">
        <ele>517</ele>
        <time>2022-05-16T16:45:12Z</time>
      </trkpt>
      <trkpt lat="43.03396" lon="0.54563">
        <ele>513</ele>
        <time>2022-05-16T16:45:37Z</time>
      </trkpt>
      <trkpt lat="43.03378" lon="0.54585">
        <ele>508</ele>
        <time>2022-05-16T16:46:09Z</time>
      </trkpt>
      <trkpt lat="43.03369" lon="0.54608">
        <ele>506</ele>
        <time>2022-05-16T16:46:34Z</time>
      </trkpt>
      <trkpt lat="43.03362" lon="0.54642">
        <ele>501</ele>
        <time>2022-05-16T16:47:09Z</time>
      </trkpt>
      <trkpt lat="43.03371" lon="0.5467">
        <ele>498</ele>
        <time>2022-05-16T16:47:39Z</time>
      </trkpt>
      <trkpt lat="43.03377" lon="0.54701">
        <ele>499</ele>
        <time>2022-05-16T16:48:10Z</time>
      </trkpt>
      <trkpt lat="43.03464" lon="0.54708">
        <ele>501</ele>
        <time>2022-05-16T16:50:06Z</time>
      </trkpt>
      <trkpt lat="43.03473" lon="0.54735">
        <ele>501</ele>
        <time>2022-05-16T16:50:35Z</time>
      </trkpt>
      <trkpt lat="43.0347" lon="0.54749">
        <ele>501</ele>
        <time>2022-05-16T16:50:50Z</time>
      </trkpt>
      <trkpt lat="43.03444" lon="0.5476">
        <ele>503</ele>
        <time>2022-05-16T16:51:26Z</time>
      </trkpt>
      <trkpt lat="43.03443" lon="0.54773">
        <ele>504</ele>
        <time>2022-05-16T16:51:39Z</time>
      </trkpt>
      <trkpt lat="43.03461" lon="0.54779">
        <ele>505</ele>
        <time>2022-05-16T16:52:03Z</time>
      </trkpt>
      <trkpt lat="43.0346" lon="0.54788">
        <ele>506</ele>
        <time>2022-05-16T16:52:12Z</time>
      </trkpt>
      <trkpt lat="43.03438" lon="0.54799">
        <ele>508</ele>
        <time>2022-05-16T16:52:43Z</time>
      </trkpt>
      <trkpt lat="43.03428" lon="0.54824">
        <ele>511</ele>
        <time>2022-05-16T16:53:11Z</time>
      </trkpt>
      <trkpt lat="43.03428" lon="0.54877">
        <ele>512</ele>
        <time>2022-05-16T16:54:03Z</time>
      </trkpt>
      <trkpt lat="43.03425" lon="0.54913">
        <ele>512</ele>
        <time>2022-05-16T16:54:38Z</time>
      </trkpt>
      <trkpt lat="43.03429" lon="0.54942">
        <ele>511</ele>
        <time>2022-05-16T16:55:07Z</time>
      </trkpt>
      <trkpt lat="43.0343" lon="0.54969">
        <ele>510</ele>
        <time>2022-05-16T16:55:33Z</time>
      </trkpt>
      <trkpt lat="43.03413" lon="0.55019">
        <ele>510</ele>
        <time>2022-05-16T16:56:27Z</time>
      </trkpt>
      <trkpt lat="43.0338" lon="0.5516">
        <ele>510</ele>
        <time>2022-05-16T16:58:52Z</time>
      </trkpt>
      <trkpt lat="43.03287" lon="0.55161">
        <ele>518</ele>
        <time>2022-05-16T17:00:56Z</time>
      </trkpt>
      <trkpt lat="43.03275" lon="0.55163">
        <ele>519</ele>
        <time>2022-05-16T17:01:12Z</time>
      </trkpt>
      <trkpt lat="43.03247" lon="0.55147">
        <ele>520</ele>
        <time>2022-05-16T17:01:52Z</time>
      </trkpt>
      <trkpt lat="43.03246" lon="0.55166">
        <ele>521</ele>
        <time>2022-05-16T17:02:11Z</time>
      </trkpt>
      <trkpt lat="43.03268" lon="0.55315">
        <ele>522</ele>
        <time>2022-05-16T17:04:39Z</time>
      </trkpt>
      <trkpt lat="43.03271" lon="0.5534">
        <ele>524</ele>
        <time>2022-05-16T17:05:04Z</time>
      </trkpt>
      <trkpt lat="43.03274" lon="0.55356">
        <ele>525</ele>
        <time>2022-05-16T17:05:20Z</time>
      </trkpt>
      <trkpt lat="43.03288" lon="0.55415">
        <ele>528</ele>
        <time>2022-05-16T17:06:21Z</time>
      </trkpt>
      <trkpt lat="43.03306" lon="0.55471">
        <ele>526</ele>
        <time>2022-05-16T17:07:20Z</time>
      </trkpt>
      <trkpt lat="43.03332" lon="0.55532">
        <ele>517</ele>
        <time>2022-05-16T17:08:29Z</time>
      </trkpt>
      <trkpt lat="43.03336" lon="0.5556">
        <ele>517</ele>
        <time>2022-05-16T17:08:57Z</time>
      </trkpt>
      <trkpt lat="43.03331" lon="0.55604">
        <ele>519</ele>
        <time>2022-05-16T17:09:40Z</time>
      </trkpt>
      <trkpt lat="43.03342" lon="0.55707">
        <ele>512</ele>
        <time>2022-05-16T17:11:22Z</time>
      </trkpt>
      <trkpt lat="43.03348" lon="0.55784">
        <ele>507</ele>
        <time>2022-05-16T17:12:37Z</time>
      </trkpt>
      <trkpt lat="43.03356" lon="0.55879">
        <ele>504</ele>
        <time>2022-05-16T17:14:11Z</time>
      </trkpt>
      <trkpt lat="43.03374" lon="0.55906">
        <ele>498</ele>
        <time>2022-05-16T17:14:46Z</time>
      </trkpt>
      <trkpt lat="43.03339" lon="0.56003">
        <ele>506</ele>
        <time>2022-05-16T17:16:32Z</time>
      </trkpt>
      <trkpt lat="43.033" lon="0.56111">
        <ele>512</ele>
        <time>2022-05-16T17:18:29Z</time>
      </trkpt>
      <trkpt lat="43.03262" lon="0.56164">
        <ele>514</ele>
        <time>2022-05-16T17:19:42Z</time>
      </trkpt>
      <trkpt lat="43.03216" lon="0.56223">
        <ele>517</ele>
        <time>2022-05-16T17:21:06Z</time>
      </trkpt>
      <trkpt lat="43.03158" lon="0.56302">
        <ele>516</ele>
        <time>2022-05-16T17:22:55Z</time>
      </trkpt>
      <trkpt lat="43.03189" lon="0.56351">
        <ele>505</ele>
        <time>2022-05-16T17:23:58Z</time>
      </trkpt>
      <trkpt lat="43.03116" lon="0.56437">
        <ele>508</ele>
        <time>2022-05-16T17:26:07Z</time>
      </trkpt>
      <trkpt lat="43.03093" lon="0.56437">
        <ele>511</ele>
        <time>2022-05-16T17:26:38Z</time>
      </trkpt>
      <trkpt lat="43.03053" lon="0.56433">
        <ele>519</ele>
        <time>2022-05-16T17:27:31Z</time>
      </trkpt>
      <trkpt lat="43.03027" lon="0.56442">
        <ele>524</ele>
        <time>2022-05-16T17:28:07Z</time>
      </trkpt>
      <trkpt lat="43.03001" lon="0.56472">
        <ele>527</ele>
        <time>2022-05-16T17:28:52Z</time>
      </trkpt>
      <trkpt lat="43.02972" lon="0.56511">
        <ele>527</ele>
        <time>2022-05-16T17:29:47Z</time>
      </trkpt>
      <trkpt lat="43.02935" lon="0.56538">
        <ele>525</ele>
        <time>2022-05-16T17:30:43Z</time>
      </trkpt>
      <trkpt lat="43.02894" lon="0.56544">
        <ele>525</ele>
        <time>2022-05-16T17:31:38Z</time>
      </trkpt>
      <trkpt lat="43.02872" lon="0.56549">
        <ele>524</ele>
        <time>2022-05-16T17:32:07Z</time>
      </trkpt>
      <trkpt lat="43.02857" lon="0.56553">
        <ele>522</ele>
        <time>2022-05-16T17:32:28Z</time>
      </trkpt>
      <trkpt lat="43.02822" lon="0.56552">
        <ele>522</ele>
        <time>2022-05-16T17:33:14Z</time>
      </trkpt>
      <trkpt lat="43.02798" lon="0.56538">
        <ele>524</ele>
        <time>2022-05-16T17:33:49Z</time>
      </trkpt>
      <trkpt lat="43.02746" lon="0.56515">
        <ele>527</ele>
        <time>2022-05-16T17:35:02Z</time>
      </trkpt>
      <trkpt lat="43.02736" lon="0.56518">
        <ele>526</ele>
        <time>2022-05-16T17:35:16Z</time>
      </trkpt>
      <trkpt lat="43.02722" lon="0.56544">
        <ele>521</ele>
        <time>2022-05-16T17:35:47Z</time>
      </trkpt>
      <trkpt lat="43.02711" lon="0.56559">
        <ele>518</ele>
        <time>2022-05-16T17:36:08Z</time>
      </trkpt>
      <trkpt lat="43.02672" lon="0.56568">
        <ele>517</ele>
        <time>2022-05-16T17:37:01Z</time>
      </trkpt>
      <trkpt lat="43.02649" lon="0.56573">
        <ele>518</ele>
        <time>2022-05-16T17:37:32Z</time>
      </trkpt>
      <trkpt lat="43.02658" lon="0.5658">
        <ele>516</ele>
        <time>2022-05-16T17:37:46Z</time>
      </trkpt>
      <trkpt lat="43.02672" lon="0.56594">
        <ele>514</ele>
        <time>2022-05-16T17:38:09Z</time>
      </trkpt>
      <trkpt lat="43.02693" lon="0.56641">
        <ele>509</ele>
        <time>2022-05-16T17:39:03Z</time>
      </trkpt>
      <trkpt lat="43.02726" lon="0.56703">
        <ele>502</ele>
        <time>2022-05-16T17:40:17Z</time>
      </trkpt>
      <trkpt lat="43.02745" lon="0.56713">
        <ele>500</ele>
        <time>2022-05-16T17:40:45Z</time>
      </trkpt>
      <trkpt lat="43.02764" lon="0.56727">
        <ele>497</ele>
        <time>2022-05-16T17:41:13Z</time>
      </trkpt>
      <trkpt lat="43.02787" lon="0.5673">
        <ele>495</ele>
        <time>2022-05-16T17:41:44Z</time>
      </trkpt>
      <trkpt lat="43.02804" lon="0.5674">
        <ele>491</ele>
        <time>2022-05-16T17:42:09Z</time>
      </trkpt>
      <trkpt lat="43.02811" lon="0.56756">
        <ele>488</ele>
        <time>2022-05-16T17:42:27Z</time>
      </trkpt>
      <trkpt lat="43.02813" lon="0.56778">
        <ele>484</ele>
        <time>2022-05-16T17:42:49Z</time>
      </trkpt>
      <trkpt lat="43.02808" lon="0.568">
        <ele>481</ele>
        <time>2022-05-16T17:43:11Z</time>
      </trkpt>
      <trkpt lat="43.028" lon="0.5684">
        <ele>476</ele>
        <time>2022-05-16T17:43:52Z</time>
      </trkpt>
      <trkpt lat="43.02795" lon="0.56876">
        <ele>478</ele>
        <time>2022-05-16T17:44:27Z</time>
      </trkpt>
      <trkpt lat="43.0282" lon="0.569">
        <ele>473</ele>
        <time>2022-05-16T17:45:08Z</time>
      </trkpt>
      <trkpt lat="43.02831" lon="0.56914">
        <ele>470</ele>
        <time>2022-05-16T17:45:28Z</time>
      </trkpt>
      <trkpt lat="43.02877" lon="0.56956">
        <ele>469</ele>
        <time>2022-05-16T17:46:42Z</time>
      </trkpt>
      <trkpt lat="43.0292" lon="0.56987">
        <ele>463</ele>
        <time>2022-05-16T17:47:47Z</time>
      </trkpt>
      <trkpt lat="43.02949" lon="0.57015">
        <ele>460</ele>
        <time>2022-05-16T17:48:34Z</time>
      </trkpt>
      <trkpt lat="43.0299" lon="0.57067">
        <ele>459</ele>
        <time>2022-05-16T17:49:49Z</time>
      </trkpt>
      <trkpt lat="43.02993" lon="0.57078">
        <ele>459</ele>
        <time>2022-05-16T17:50:00Z</time>
      </trkpt>
      <trkpt lat="43.02987" lon="0.57125">
        <ele>460</ele>
        <time>2022-05-16T17:50:47Z</time>
      </trkpt>
      <trkpt lat="43.02974" lon="0.57148">
        <ele>461</ele>
        <time>2022-05-16T17:51:15Z</time>
      </trkpt>
      <trkpt lat="43.02962" lon="0.57177">
        <ele>461</ele>
        <time>2022-05-16T17:51:48Z</time>
      </trkpt>
      <trkpt lat="43.02935" lon="0.57167">
        <ele>461</ele>
        <time>2022-05-16T17:52:25Z</time>
      </trkpt>
    </trkseg>
  </trk>
</gpx>